createdAt,value
2019-01-14T00:03:36.808Z,95762.04
2019-01-14T00:08:40.039Z,95773.99
2019-01-14T00:13:43.425Z,95777.64
2019-01-14T00:18:46.643Z,95793.53
2019-01-14T00:23:49.856Z,95797.86
2019-01-14T00:28:53.254Z,95809.69
2019-01-14T00:33:56.459Z,95814.05
2019-01-14T00:38:59.739Z,95823.59
2019-01-14T00:44:02.963Z,95824.45
2019-01-14T00:49:06.218Z,95827.80
2019-01-14T00:54:10.663Z,95847.37
2019-01-14T00:59:12.917Z,95853.02
2019-01-14T01:04:16.164Z,95866.62
2019-01-14T01:09:19.426Z,95857.16
2019-01-14T01:14:22.767Z,95858.40
2019-01-14T01:19:26.028Z,95857.47
2019-01-14T01:24:29.305Z,95865.14
2019-01-14T01:29:32.495Z,95873.25
2019-01-14T01:34:35.770Z,95869.02
2019-01-14T01:39:39.005Z,95879.92
2019-01-14T01:44:42.245Z,95883.25
2019-01-14T01:49:45.495Z,95902.11
2019-01-14T01:54:48.844Z,95896.00
2019-01-14T01:59:52.065Z,95905.72
2019-01-14T02:04:55.262Z,95899.44
2019-01-14T02:09:58.470Z,95909.56
2019-01-14T02:15:01.672Z,95909.88
2019-01-14T02:20:05.488Z,95917.25
2019-01-14T02:25:09.021Z,95922.98
2019-01-14T02:30:15.940Z,95936.11
2019-01-14T02:35:19.166Z,95932.23
2019-01-14T02:40:22.831Z,95933.33
2019-01-14T02:45:26.049Z,95948.22
2019-01-14T02:50:29.268Z,95938.70
2019-01-14T02:55:32.496Z,95937.59
2019-01-14T03:00:35.726Z,95943.76
2019-01-14T03:05:38.942Z,95947.35
2019-01-14T03:10:42.146Z,95956.61
2019-01-14T03:15:45.432Z,95954.01
2019-01-14T03:20:48.746Z,95953.97
2019-01-14T03:25:58.004Z,95961.02
2019-01-14T03:30:55.522Z,95949.45
2019-01-14T03:35:58.744Z,95938.99
2019-01-14T03:41:02.155Z,95924.33
2019-01-14T03:46:05.376Z,95921.63
2019-01-14T03:51:08.597Z,95926.59
2019-01-14T03:56:11.806Z,95915.89
2019-01-14T04:01:15.027Z,95928.34
2019-01-14T04:06:18.409Z,95937.77
2019-01-14T04:11:21.611Z,95966.12
2019-01-14T04:16:24.842Z,95985.92
2019-01-14T04:21:28.071Z,95992.75
2019-01-14T04:26:31.314Z,96011.19
2019-01-14T04:31:34.535Z,96038.27
2019-01-14T04:36:37.739Z,96053.92
2019-01-14T04:41:40.948Z,96062.88
2019-01-14T04:46:44.274Z,96081.63
2019-01-14T04:51:47.588Z,96094.55
2019-01-14T04:56:50.827Z,96114.31
2019-01-14T05:01:55.142Z,96116.44
2019-01-14T05:06:58.410Z,96135.52
2019-01-14T05:12:01.863Z,96146.61
2019-01-14T05:17:05.119Z,96168.31
2019-01-14T05:22:08.394Z,96169.64
2019-01-14T05:27:11.762Z,96168.91
2019-01-14T05:32:15.138Z,96169.20
2019-01-14T05:37:18.504Z,96176.94
2019-01-14T05:42:21.933Z,96178.19
2019-01-14T05:47:25.237Z,96192.20
2019-01-14T05:52:28.457Z,96206.73
2019-01-14T05:57:31.728Z,96226.04
2019-01-14T06:02:35.133Z,96238.50
2019-01-14T06:07:44.814Z,96259.23
2019-01-14T06:12:41.842Z,96280.20
2019-01-14T06:17:45.072Z,96289.11
2019-01-14T06:22:48.418Z,96294.87
2019-01-14T06:27:51.787Z,96296.13
2019-01-14T06:32:55.060Z,96309.11
2019-01-14T06:37:58.280Z,96321.55
2019-01-14T06:43:01.477Z,96325.48
2019-01-14T06:48:05.105Z,96331.23
2019-01-14T06:53:08.369Z,96351.52
2019-01-14T06:58:11.654Z,96362.30
2019-01-14T07:03:15.072Z,96374.29
2019-01-14T07:08:18.354Z,96391.95
2019-01-14T07:13:21.710Z,96404.45
2019-01-14T07:18:25.063Z,96417.58
2019-01-14T07:23:28.378Z,96429.34
2019-01-14T07:28:31.667Z,96448.70
2019-01-14T07:33:34.965Z,96459.70
2019-01-14T07:38:38.346Z,96469.45
2019-01-14T07:43:41.545Z,96471.41
2019-01-14T07:48:44.751Z,96495.64
2019-01-14T07:53:48.085Z,96498.37
2019-01-14T07:58:51.283Z,96498.99
2019-01-14T08:03:54.758Z,96510.09
2019-01-14T08:08:57.981Z,96527.66
2019-01-14T08:14:01.273Z,96530.75
2019-01-14T08:19:04.647Z,96529.41
2019-01-14T08:24:07.851Z,96530.44
2019-01-14T08:29:11.081Z,96542.77
2019-01-14T08:34:14.295Z,96544.12
2019-01-14T08:39:17.627Z,96552.91
2019-01-14T08:44:22.768Z,96556.17
2019-01-14T08:49:26.073Z,96556.37
2019-01-14T08:54:29.289Z,96570.42
2019-01-14T08:59:32.707Z,96566.68
2019-01-14T09:04:35.930Z,96570.37
2019-01-14T09:09:39.222Z,96576.47
2019-01-14T09:14:42.441Z,96589.62
2019-01-14T09:19:45.680Z,96570.97
2019-01-14T09:24:49.076Z,96580.48
2019-01-14T09:29:52.499Z,96578.55
2019-01-14T09:34:55.823Z,96593.72
2019-01-14T09:39:59.028Z,96591.38
2019-01-14T09:45:02.343Z,96591.53
2019-01-14T09:50:06.811Z,96591.48
2019-01-14T09:55:11.903Z,96591.41
2019-01-14T10:00:15.311Z,96597.64
2019-01-14T10:05:19.463Z,96582.80
2019-01-14T10:10:22.739Z,96594.92
2019-01-14T10:15:26.122Z,96605.88
2019-01-14T10:20:29.483Z,96601.85
2019-01-14T10:25:34.375Z,96591.78
2019-01-14T10:30:37.711Z,96589.23
2019-01-14T10:35:40.931Z,96591.48
2019-01-14T10:40:44.243Z,96585.69
2019-01-14T10:45:47.545Z,96579.93
2019-01-14T10:50:50.779Z,96587.91
2019-01-14T10:55:54.001Z,96578.55
2019-01-14T11:00:57.233Z,96591.41
2019-01-14T11:06:00.500Z,96584.97
2019-01-14T11:11:03.721Z,96590.03
2019-01-14T11:16:07.036Z,96585.66
2019-01-14T11:21:14.361Z,96590.55
2019-01-14T11:26:13.575Z,96603.78
2019-01-14T11:31:17.899Z,96597.13
2019-01-14T11:36:21.287Z,96597.64
2019-01-14T11:41:25.544Z,96603.34
2019-01-14T11:46:28.742Z,96601.77
2019-01-14T11:51:32.163Z,96588.23
2019-01-14T11:56:35.363Z,96590.88
2019-01-14T12:01:38.567Z,96583.12
2019-01-14T12:06:41.935Z,96598.19
2019-01-14T12:11:45.302Z,96601.06
2019-01-14T12:16:48.508Z,96597.64
2019-01-14T12:21:51.734Z,96600.17
2019-01-14T12:26:55.037Z,96604.11
2019-01-14T12:31:58.443Z,96603.78
2019-01-14T12:37:01.755Z,96607.95
2019-01-14T12:42:04.967Z,96607.18
2019-01-14T12:47:08.396Z,96600.67
2019-01-14T12:52:11.625Z,96594.06
2019-01-14T12:57:14.858Z,96599.46
2019-01-14T13:02:18.184Z,96603.32
2019-01-14T13:07:21.418Z,96609.23
2019-01-14T13:12:24.630Z,96603.82
2019-01-14T13:17:27.954Z,96610.88
2019-01-14T13:22:31.207Z,96636.20
2019-01-14T13:27:34.551Z,96668.12
2019-01-14T13:32:37.858Z,96684.46
2019-01-14T13:37:41.059Z,96669.58
2019-01-14T13:42:44.387Z,96677.83
2019-01-14T13:47:47.746Z,96680.78
2019-01-14T13:52:51.007Z,96686.27
2019-01-14T13:57:54.335Z,96697.55
2019-01-14T14:02:57.572Z,96698.56
2019-01-14T14:08:00.847Z,96705.80
2019-01-14T14:13:04.144Z,96709.91
2019-01-14T14:18:07.452Z,96729.95
2019-01-14T14:23:11.010Z,96732.62
2019-01-14T14:28:14.312Z,96734.80
2019-01-14T14:33:17.631Z,96739.22
2019-01-14T14:38:20.936Z,96755.22
2019-01-14T14:43:24.285Z,96756.64
2019-01-14T14:48:27.723Z,96764.92
2019-01-14T14:53:31.161Z,96771.09
2019-01-14T14:58:34.379Z,96774.81
2019-01-14T15:03:37.644Z,96787.13
2019-01-14T15:08:40.956Z,96791.18
2019-01-14T15:13:44.475Z,96806.98
2019-01-14T15:18:47.974Z,96819.50
2019-01-14T15:23:51.226Z,96831.00
2019-01-14T15:28:54.832Z,96839.13
2019-01-14T15:33:59.245Z,96864.05
2019-01-14T15:39:02.591Z,96867.63
2019-01-14T15:44:06.147Z,96879.34
2019-01-14T15:49:09.477Z,96886.31
2019-01-14T15:54:12.752Z,96895.14
2019-01-14T15:59:16.132Z,96895.14
2019-01-14T16:04:19.377Z,96902.51
2019-01-14T16:09:22.787Z,96910.25
2019-01-14T16:14:26.036Z,96920.66
2019-01-14T16:19:29.352Z,96931.59
2019-01-14T16:24:32.700Z,96945.28
2019-01-14T16:29:36.096Z,96949.53
2019-01-14T16:34:39.408Z,96950.55
2019-01-14T16:39:42.714Z,96962.16
2019-01-14T16:44:47.167Z,96976.73
2019-01-14T16:49:50.479Z,96981.05
2019-01-14T16:54:53.780Z,97001.62
2019-01-14T16:59:57.092Z,97008.48
2019-01-14T17:05:00.426Z,97003.20
2019-01-14T17:10:05.946Z,97019.75
2019-01-14T17:15:09.433Z,97035.30
2019-01-14T17:20:15.713Z,97044.94
2019-01-14T17:25:19.048Z,97049.61
2019-01-14T17:30:22.445Z,97063.75
2019-01-14T17:35:25.766Z,97072.03
2019-01-14T17:40:32.742Z,97081.61
2019-01-14T17:45:32.419Z,97090.70
2019-01-14T17:50:36.053Z,97108.26
2019-01-14T17:55:39.192Z,97124.58
2019-01-14T18:00:42.507Z,97140.42
2019-01-14T18:05:45.919Z,97164.09
2019-01-14T18:10:49.410Z,97169.41
2019-01-14T18:15:52.727Z,97189.48
2019-01-14T18:20:56.269Z,97183.36
2019-01-14T18:25:59.774Z,97197.95
2019-01-14T18:31:03.287Z,97201.88
2019-01-14T18:36:06.638Z,97210.62
2019-01-14T18:41:10.017Z,97216.67
2019-01-14T18:46:13.363Z,97218.41
2019-01-14T18:51:16.841Z,97227.24
2019-01-14T18:56:20.170Z,97234.07
2019-01-14T19:01:23.540Z,97235.04
2019-01-14T19:06:26.963Z,97240.13
2019-01-14T19:11:30.483Z,97256.71
2019-01-14T19:16:34.011Z,97264.77
2019-01-14T19:21:37.411Z,97273.37
2019-01-14T19:26:40.840Z,97288.75
2019-01-14T19:31:44.256Z,97294.98
2019-01-14T19:36:47.643Z,97313.83
2019-01-14T19:41:51.185Z,97318.14
2019-01-14T19:46:54.507Z,97323.20
2019-01-14T19:51:57.886Z,97332.24
2019-01-14T19:57:01.195Z,97346.27
2019-01-14T20:02:04.831Z,97345.83
2019-01-14T20:07:11.175Z,97351.31
2019-01-14T20:12:11.771Z,97347.59
2019-01-14T20:17:15.159Z,97356.95
2019-01-14T20:22:18.472Z,97362.50
2019-01-14T20:27:21.789Z,97375.50
2019-01-14T20:32:25.192Z,97375.84
2019-01-14T20:37:28.719Z,97387.30
2019-01-14T20:42:32.565Z,97389.14
2019-01-14T20:47:36.257Z,97387.09
2019-01-14T20:52:39.544Z,97386.80
2019-01-14T20:57:44.206Z,97394.87
2019-01-14T21:02:47.716Z,97391.58
2019-01-14T21:07:51.088Z,97405.56
2019-01-14T21:12:56.547Z,97406.92
2019-01-14T21:18:00.383Z,97409.87
2019-01-14T21:23:04.296Z,97418.13
2019-01-14T21:28:07.703Z,97418.85
2019-01-14T21:33:11.231Z,97417.95
2019-01-14T21:38:15.066Z,97420.09
2019-01-14T21:43:18.621Z,97425.23
2019-01-14T21:48:21.994Z,97433.77
2019-01-14T21:53:25.747Z,97437.27
2019-01-14T21:58:28.962Z,97450.97
2019-01-14T22:03:32.669Z,97459.03
2019-01-14T22:08:36.207Z,97474.07
2019-01-14T22:13:39.539Z,97469.16
2019-01-14T22:18:42.960Z,97462.00
2019-01-14T22:23:46.273Z,97459.05
2019-01-14T22:28:49.655Z,97473.47
2019-01-14T22:33:53.287Z,97479.38
2019-01-14T22:38:57.015Z,97477.11
2019-01-14T22:44:00.423Z,97475.65
2019-01-14T22:49:04.270Z,97476.27
2019-01-14T22:54:07.775Z,97478.02
2019-01-14T22:59:11.051Z,97488.64
2019-01-14T23:04:14.652Z,97501.53
2019-01-14T23:09:17.923Z,97495.41
2019-01-14T23:14:21.199Z,97505.31
2019-01-14T23:19:24.469Z,97510.38
2019-01-14T23:24:27.724Z,97508.19
2019-01-14T23:29:31.138Z,97517.55
2019-01-14T23:34:34.403Z,97530.66
2019-01-14T23:39:37.670Z,97537.59
2019-01-14T23:44:40.937Z,97543.03
2019-01-14T23:49:44.226Z,97550.00
2019-01-14T23:54:47.500Z,97548.35
2019-01-14T23:59:50.876Z,97554.38
